Turvo, Brazil
Current Conditions -  °F | °C
As of 12:00 AM on Wednesday 26 Nov 2014 (Local Time) from SBMG Reporting Station
Broken Clouds Broken Clouds  
Wind Chill: 68°   Ceiling: 10000
Heat Index: 68°   Visibility: 6mi
Dew Point: 66°   Wind: 5mph
Humidity: 94%   Direction: 150°SSE
Pressure: 29.8"   Gusts: NA
Location:  25.04°S, 51.53°W
Report Text: SBMG 260200Z 15004KT 9999 SCT040 BKN100 20/19 Q1009
Loading
Personal Weather Stations






























Interactive Weather Map New forecast layout! Learn more

10-Day Weather Forecast

Advertisements
Track Severe Weather on mobile